Sao Carlos, Brazil
Current Conditions -  °F | °C
As of 1:30 AM on Saturday 29 Nov 2014 (Local Time) from SBCH Reporting Station
Clear Clear  
Wind Chill: 73°   Ceiling: Unl
Heat Index: 73°   Visibility: 6mi
Dew Point: 64°   Wind: 12mph
Humidity: 73%   Direction: 60°ENE
Pressure: 29.97"   Gusts: NA
Location:  27.08°S, 53°W
Report Text: SBCH 290330Z 06010KT CAVOK 23/18 Q1015
Loading
Personal Weather Stations






























Interactive Weather Map New forecast layout! Learn more

10-Day Weather Forecast

Advertisements
Track Severe Weather on mobile